createdAt,value
2018-11-14T00:02:25.858Z,0.71
2018-11-14T00:04:53.971Z,0.71
2018-11-14T00:07:22.268Z,0.69
2018-11-14T00:09:50.430Z,0.46
2018-11-14T00:12:19.025Z,0.49
2018-11-14T00:14:47.302Z,0.49
2018-11-14T00:17:15.452Z,0.54
2018-11-14T00:19:43.828Z,0.56
2018-11-14T00:22:12.043Z,0.58
2018-11-14T00:24:40.164Z,0.62
2018-11-14T00:27:08.553Z,0.56
2018-11-14T00:29:37.012Z,0.50
2018-11-14T00:32:05.169Z,0.30
2018-11-14T00:34:33.396Z,0.26
2018-11-14T00:37:01.674Z,0.27
2018-11-14T00:39:30.398Z,0.28
2018-11-14T00:41:59.034Z,0.22
2018-11-14T00:44:27.311Z,0.22
2018-11-14T00:46:55.572Z,0.22
2018-11-14T00:49:23.764Z,0.30
2018-11-14T00:51:54.759Z,0.29
2018-11-14T00:54:22.877Z,0.08
2018-11-14T00:56:51.165Z,0.07
2018-11-14T00:59:19.246Z,0.02
2018-11-14T01:01:47.613Z,0.04
2018-11-14T01:04:16.116Z,0.10
2018-11-14T01:06:44.403Z,0.01
2018-11-14T01:09:13.197Z,0.04
2018-11-14T01:11:41.479Z,0.14
2018-11-14T01:14:10.506Z,-0.05
2018-11-14T01:16:38.830Z,-0.22
2018-11-14T01:19:08.004Z,-0.18
2018-11-14T01:21:36.470Z,-0.11
2018-11-14T01:24:04.988Z,-0.10
2018-11-14T01:26:33.456Z,-0.02
2018-11-14T01:29:01.732Z,-0.04
2018-11-14T01:31:30.156Z,-0.17
2018-11-14T01:33:58.216Z,0.19
2018-11-14T01:36:26.409Z,0.05
2018-11-14T01:38:54.638Z,-0.07
2018-11-14T01:41:23.097Z,-0.05
2018-11-14T01:43:51.516Z,-0.03
2018-11-14T01:46:19.953Z,0.01
2018-11-14T01:48:48.176Z,-0.28
2018-11-14T01:51:16.701Z,-0.25
2018-11-14T01:53:45.205Z,-0.20
2018-11-14T01:56:13.635Z,-0.25
2018-11-14T01:58:42.029Z,-0.28
2018-11-14T02:01:10.651Z,-0.23
2018-11-14T02:03:38.957Z,-0.13
2018-11-14T02:06:07.520Z,-0.20
2018-11-14T02:08:35.945Z,-0.33
2018-11-14T02:11:04.482Z,-0.19
2018-11-14T02:13:33.050Z,-0.24
2018-11-14T02:16:01.936Z,-0.21
2018-11-14T02:18:30.309Z,-0.41
2018-11-14T02:20:58.694Z,-0.47
2018-11-14T02:23:27.074Z,-0.41
2018-11-14T02:25:55.638Z,-0.50
2018-11-14T02:28:23.965Z,-0.65
2018-11-14T02:30:52.262Z,-0.72
2018-11-14T02:33:20.618Z,-0.69
2018-11-14T02:35:48.938Z,-0.76
2018-11-14T02:38:17.288Z,-0.79
2018-11-14T02:40:45.602Z,-0.91
2018-11-14T02:43:14.020Z,-1.08
2018-11-14T02:45:42.412Z,-1.25
2018-11-14T02:48:10.786Z,-1.30
2018-11-14T02:50:39.473Z,-1.37
2018-11-14T02:53:08.044Z,-1.40
2018-11-14T02:55:36.449Z,-1.40
2018-11-14T02:58:05.178Z,-1.27
2018-11-14T03:00:33.791Z,-1.14
2018-11-14T03:03:02.256Z,-1.30
2018-11-14T03:05:30.372Z,-1.45
2018-11-14T03:07:59.030Z,-1.39
2018-11-14T03:10:27.354Z,-1.41
2018-11-14T03:12:55.924Z,-1.49
2018-11-14T03:15:24.566Z,-1.49
2018-11-14T03:17:52.931Z,-1.50
2018-11-14T03:20:21.935Z,-1.51
2018-11-14T03:22:50.631Z,-1.57
2018-11-14T03:25:19.194Z,-1.50
2018-11-14T03:27:47.597Z,-1.47
2018-11-14T03:30:17.205Z,-1.41
2018-11-14T03:32:45.695Z,-1.55
2018-11-14T03:35:14.579Z,-1.60
2018-11-14T03:37:43.250Z,-1.58
2018-11-14T03:40:13.544Z,-1.50
2018-11-14T03:42:41.946Z,-1.51
2018-11-14T03:45:11.928Z,-1.57
2018-11-14T03:47:40.867Z,-1.46
2018-11-14T03:50:09.546Z,-1.44
2018-11-14T03:52:38.032Z,-1.57
2018-11-14T03:55:06.529Z,-1.34
2018-11-14T03:57:35.079Z,-1.44
2018-11-14T04:00:04.422Z,-1.35
2018-11-14T04:02:32.944Z,-1.46
2018-11-14T04:05:01.312Z,-1.34
2018-11-14T04:07:29.735Z,-1.40
2018-11-14T04:09:58.220Z,-1.47
2018-11-14T04:12:26.567Z,-1.54
2018-11-14T04:14:54.951Z,-1.56
2018-11-14T04:17:23.352Z,-1.53
2018-11-14T04:19:51.840Z,-1.53
2018-11-14T04:22:20.319Z,-1.54
2018-11-14T04:24:48.698Z,-1.50
2018-11-14T04:27:17.296Z,-1.46
2018-11-14T04:29:45.661Z,-1.51
2018-11-14T04:32:14.085Z,-1.45
2018-11-14T04:34:42.252Z,-1.60
2018-11-14T04:37:10.760Z,-1.65
2018-11-14T04:39:39.172Z,-1.67
2018-11-14T04:42:07.762Z,-1.63
2018-11-14T04:44:36.184Z,-1.62
2018-11-14T04:47:05.076Z,-1.51
2018-11-14T04:49:33.783Z,-1.50
2018-11-14T04:52:02.278Z,-1.51
2018-11-14T04:54:30.728Z,-1.53
2018-11-14T04:56:59.130Z,-1.51
2018-11-14T04:59:27.654Z,-1.57
2018-11-14T05:02:02.619Z,-1.60
2018-11-14T05:04:31.166Z,-1.66
2018-11-14T05:06:59.519Z,-1.68
2018-11-14T05:09:27.859Z,-1.77
2018-11-14T05:11:56.505Z,-1.78
2018-11-14T05:14:24.949Z,-1.73
2018-11-14T05:16:53.301Z,-1.73
2018-11-14T05:19:21.763Z,-1.75
2018-11-14T05:21:50.318Z,-1.64
2018-11-14T05:24:18.707Z,-1.59
2018-11-14T05:26:47.580Z,-1.57
2018-11-14T05:29:16.069Z,-1.54
2018-11-14T05:31:44.960Z,-1.49
2018-11-14T05:34:13.547Z,-1.42
2018-11-14T05:36:42.092Z,-1.35
2018-11-14T05:39:11.374Z,-1.19
2018-11-14T05:41:39.848Z,-1.11
2018-11-14T05:44:08.479Z,-0.91
2018-11-14T05:46:37.060Z,-0.94
2018-11-14T05:49:05.976Z,-0.85
2018-11-14T05:51:34.350Z,-0.78
2018-11-14T05:54:03.039Z,-0.70
2018-11-14T05:56:31.492Z,-0.65
2018-11-14T05:58:59.751Z,-0.67
2018-11-14T06:01:28.274Z,-0.51
2018-11-14T06:03:56.573Z,-0.48
2018-11-14T06:06:24.958Z,-0.40
2018-11-14T06:08:53.644Z,-0.37
2018-11-14T06:11:22.161Z,-0.27
2018-11-14T06:13:50.783Z,-0.25
2018-11-14T06:16:19.262Z,-0.05
2018-11-14T06:18:47.483Z,0.04
2018-11-14T06:21:16.125Z,-0.02
2018-11-14T06:23:44.895Z,0.02
2018-11-14T06:26:13.335Z,0.11
2018-11-14T06:28:42.013Z,0.32
2018-11-14T06:31:10.509Z,0.34
2018-11-14T06:33:39.743Z,0.35
2018-11-14T06:36:08.343Z,0.45
2018-11-14T06:38:36.871Z,0.52
2018-11-14T06:41:05.614Z,0.67
2018-11-14T06:43:33.927Z,0.66
2018-11-14T06:46:02.441Z,0.62
2018-11-14T06:48:31.756Z,0.90
2018-11-14T06:51:00.924Z,1.13
2018-11-14T06:53:29.322Z,1.07
2018-11-14T06:55:57.908Z,1.05
2018-11-14T06:58:26.449Z,1.34
2018-11-14T07:00:55.116Z,1.43
2018-11-14T07:03:23.701Z,1.34
2018-11-14T07:05:52.271Z,1.25
2018-11-14T07:08:21.422Z,1.02
2018-11-14T07:10:50.083Z,1.05
2018-11-14T07:13:18.953Z,1.09
2018-11-14T07:15:47.815Z,1.05
2018-11-14T07:18:16.627Z,1.14
2018-11-14T07:20:46.868Z,1.37
2018-11-14T07:23:15.804Z,1.43
2018-11-14T07:25:44.305Z,1.61
2018-11-14T07:28:13.400Z,1.65
2018-11-14T07:30:44.444Z,1.61
2018-11-14T07:33:13.318Z,1.82
2018-11-14T07:35:41.972Z,1.97
2018-11-14T07:38:44.139Z,2.31
2018-11-14T07:41:15.503Z,2.32
2018-11-14T07:43:44.384Z,2.26
2018-11-14T07:46:13.466Z,2.26
2018-11-14T07:48:42.556Z,2.42
2018-11-14T07:51:11.036Z,2.52
2018-11-14T07:53:39.609Z,2.59
2018-11-14T07:56:07.992Z,2.70
2018-11-14T07:58:36.554Z,2.72
2018-11-14T08:01:05.223Z,2.76
2018-11-14T08:03:33.610Z,2.65
2018-11-14T08:06:02.207Z,2.57
2018-11-14T08:08:31.128Z,2.65
2018-11-14T08:10:59.662Z,2.61
2018-11-14T08:13:29.322Z,2.66
2018-11-14T08:15:59.139Z,2.76
2018-11-14T08:18:27.995Z,2.74
2018-11-14T08:20:56.825Z,2.76
2018-11-14T08:23:25.183Z,2.69
2018-11-14T08:25:53.625Z,2.86
2018-11-14T08:28:21.973Z,3.01
2018-11-14T08:30:50.428Z,3.01
2018-11-14T08:33:19.223Z,2.73
2018-11-14T08:35:47.769Z,2.59
2018-11-14T08:38:16.559Z,2.76
2018-11-14T08:40:45.111Z,2.93
2018-11-14T08:43:13.653Z,2.91
2018-11-14T08:45:42.231Z,2.94
2018-11-14T08:48:10.623Z,2.97
2018-11-14T08:50:39.085Z,3.07
2018-11-14T08:53:08.255Z,3.24
2018-11-14T08:55:36.680Z,3.63
2018-11-14T08:58:05.618Z,3.87
2018-11-14T09:00:34.121Z,4.00
2018-11-14T09:03:02.611Z,4.17
2018-11-14T09:05:31.061Z,4.46
2018-11-14T09:07:59.558Z,4.47
2018-11-14T09:10:28.022Z,4.60
2018-11-14T09:12:57.092Z,4.82
2018-11-14T09:15:25.933Z,4.87
2018-11-14T09:17:54.479Z,5.01
2018-11-14T09:20:24.846Z,5.10
2018-11-14T09:22:53.468Z,5.20
2018-11-14T09:25:27.121Z,5.32
2018-11-14T09:27:55.709Z,5.22
2018-11-14T09:30:25.018Z,5.42
2018-11-14T09:32:53.451Z,5.69
2018-11-14T09:35:22.767Z,5.74
2018-11-14T09:37:51.644Z,6.09
2018-11-14T09:40:22.223Z,6.44
2018-11-14T09:42:50.789Z,6.33
2018-11-14T09:45:20.617Z,6.40
2018-11-14T09:47:49.533Z,6.53
2018-11-14T09:50:22.397Z,6.76
2018-11-14T09:52:53.769Z,6.73
2018-11-14T09:55:23.557Z,6.62
2018-11-14T09:57:52.123Z,6.68
2018-11-14T10:00:21.824Z,6.49
2018-11-14T10:03:02.546Z,6.16
2018-11-14T10:05:34.727Z,5.96
2018-11-14T10:08:04.567Z,5.91
2018-11-14T10:10:40.513Z,5.75
2018-11-14T10:13:10.581Z,5.71
2018-11-14T10:15:39.255Z,5.73
2018-11-14T10:18:07.800Z,5.96
2018-11-14T10:20:36.263Z,6.20
2018-11-14T10:23:04.833Z,6.26
2018-11-14T10:25:33.259Z,6.30
2018-11-14T10:28:01.953Z,6.30
2018-11-14T10:30:30.737Z,6.13
2018-11-14T10:32:59.316Z,6.09
2018-11-14T10:35:28.125Z,6.23
2018-11-14T10:37:56.837Z,6.25
2018-11-14T10:40:26.595Z,6.24
2018-11-14T10:42:55.113Z,6.12
2018-11-14T10:45:24.703Z,6.04
2018-11-14T10:47:53.094Z,6.03
2018-11-14T10:50:23.561Z,6.19
2018-11-14T10:52:52.062Z,6.45
2018-11-14T10:55:21.036Z,6.64
2018-11-14T10:57:49.517Z,6.80
2018-11-14T11:00:28.108Z,6.70
2018-11-14T11:03:02.292Z,6.72
2018-11-14T11:05:35.944Z,6.75
2018-11-14T11:08:10.288Z,6.67
2018-11-14T11:10:44.209Z,6.67
2018-11-14T11:13:21.927Z,6.72
2018-11-14T11:15:55.703Z,6.64
2018-11-14T11:18:25.299Z,6.76
2018-11-14T11:20:54.004Z,6.82
2018-11-14T11:23:22.524Z,6.77
2018-11-14T11:25:50.968Z,6.80
2018-11-14T11:28:20.504Z,6.76
2018-11-14T11:30:49.267Z,6.81
2018-11-14T11:33:17.705Z,6.99
2018-11-14T11:35:46.210Z,6.98
2018-11-14T11:38:14.907Z,6.99
2018-11-14T11:40:43.213Z,7.09
2018-11-14T11:43:11.402Z,7.02
2018-11-14T11:45:39.917Z,7.12
2018-11-14T11:48:08.292Z,7.20
2018-11-14T11:50:36.641Z,7.28
2018-11-14T11:53:04.976Z,7.38
2018-11-14T11:55:33.303Z,7.46
2018-11-14T11:58:01.373Z,7.51
2018-11-14T12:00:29.786Z,7.49
2018-11-14T12:02:58.761Z,7.55
2018-11-14T12:05:27.025Z,7.82
2018-11-14T12:07:56.406Z,7.79
2018-11-14T12:10:25.247Z,7.88
2018-11-14T12:12:53.673Z,7.93
2018-11-14T12:15:22.270Z,8.00
2018-11-14T12:17:50.674Z,7.98
2018-11-14T12:20:18.916Z,7.94
2018-11-14T12:22:47.228Z,7.79
2018-11-14T12:25:16.292Z,7.78
2018-11-14T12:27:44.931Z,7.77
2018-11-14T12:30:15.529Z,7.73
2018-11-14T12:32:43.911Z,7.62
2018-11-14T12:35:15.845Z,7.62
2018-11-14T12:37:44.737Z,7.48
2018-11-14T12:40:14.278Z,7.44
2018-11-14T12:42:42.828Z,7.47
2018-11-14T12:45:13.495Z,7.67
2018-11-14T12:47:42.299Z,7.62
2018-11-14T12:50:12.557Z,7.61
2018-11-14T12:52:41.888Z,7.65
2018-11-14T12:55:13.238Z,7.65
2018-11-14T12:57:41.793Z,7.80
2018-11-14T13:00:12.071Z,7.81
2018-11-14T13:02:40.520Z,7.85
2018-11-14T13:05:09.862Z,7.79
2018-11-14T13:07:38.490Z,7.79
2018-11-14T13:10:08.507Z,7.82
2018-11-14T13:12:37.030Z,8.03
2018-11-14T13:15:06.038Z,7.98
2018-11-14T13:17:34.358Z,7.84
2018-11-14T13:20:03.141Z,7.99
2018-11-14T13:22:31.675Z,7.97
2018-11-14T13:25:00.517Z,8.19
2018-11-14T13:27:28.953Z,8.21
2018-11-14T13:29:57.366Z,8.17
2018-11-14T13:32:26.057Z,8.07
2018-11-14T13:34:54.390Z,7.97
2018-11-14T13:37:23.705Z,7.90
2018-11-14T13:39:52.200Z,7.88
2018-11-14T13:42:21.069Z,8.06
2018-11-14T13:44:50.197Z,8.09
2018-11-14T13:47:19.062Z,8.36
2018-11-14T13:49:48.509Z,8.38
2018-11-14T13:52:17.436Z,8.31
2018-11-14T13:54:46.456Z,8.41
2018-11-14T13:57:15.167Z,8.57
2018-11-14T13:59:44.015Z,8.52
2018-11-14T14:02:12.848Z,8.56
2018-11-14T14:04:41.786Z,8.65
2018-11-14T14:07:10.263Z,8.66
2018-11-14T14:09:38.881Z,8.72
2018-11-14T14:12:07.676Z,8.59
2018-11-14T14:14:35.934Z,8.55
2018-11-14T14:17:04.398Z,8.55
2018-11-14T14:19:33.126Z,8.64
2018-11-14T14:22:01.901Z,8.74
2018-11-14T14:24:30.364Z,8.72
2018-11-14T14:26:59.008Z,8.64
2018-11-14T14:29:30.813Z,8.75
2018-11-14T14:31:59.693Z,8.76
2018-11-14T14:34:28.431Z,8.72
2018-11-14T14:36:56.968Z,8.74
2018-11-14T14:39:25.614Z,8.80
2018-11-14T14:41:54.277Z,8.82
2018-11-14T14:44:23.313Z,8.64
2018-11-14T14:46:51.971Z,8.66
2018-11-14T14:49:20.496Z,8.70
2018-11-14T14:51:49.277Z,8.73
2018-11-14T14:54:17.916Z,8.75
2018-11-14T14:56:46.506Z,8.62
2018-11-14T14:59:15.035Z,8.66
2018-11-14T15:01:43.809Z,8.67
2018-11-14T15:04:12.669Z,8.57
2018-11-14T15:06:41.348Z,8.60
2018-11-14T15:09:10.398Z,8.50
2018-11-14T15:11:39.091Z,8.36
2018-11-14T15:14:07.839Z,8.28
2018-11-14T15:16:36.641Z,8.35
2018-11-14T15:19:05.219Z,8.27
2018-11-14T15:21:33.860Z,8.26
2018-11-14T15:24:02.559Z,8.14
2018-11-14T15:26:31.067Z,8.20
2018-11-14T15:28:59.681Z,8.14
2018-11-14T15:31:28.424Z,7.95
2018-11-14T15:33:57.206Z,7.98
2018-11-14T15:36:25.715Z,7.82
2018-11-14T15:38:54.432Z,7.71
2018-11-14T15:41:23.190Z,7.81
2018-11-14T15:43:51.934Z,7.74
2018-11-14T15:46:20.578Z,7.78
2018-11-14T15:48:49.353Z,7.93
2018-11-14T15:51:18.150Z,7.88
2018-11-14T15:53:46.818Z,7.79
2018-11-14T15:56:15.472Z,7.73
2018-11-14T15:58:44.064Z,7.69
2018-11-14T16:01:12.628Z,7.66
2018-11-14T16:03:41.381Z,7.70
2018-11-14T16:06:10.247Z,7.69
2018-11-14T16:08:38.899Z,7.72
2018-11-14T16:11:07.560Z,7.67
2018-11-14T16:13:36.306Z,7.76
2018-11-14T16:16:04.978Z,7.69
2018-11-14T16:18:33.764Z,7.59
2018-11-14T16:21:02.282Z,7.56
2018-11-14T16:23:30.932Z,7.53
2018-11-14T16:25:59.610Z,7.42
2018-11-14T16:28:28.381Z,7.42
2018-11-14T16:30:57.111Z,7.41
2018-11-14T16:33:26.544Z,7.40
2018-11-14T16:35:55.806Z,7.32
2018-11-14T16:38:24.809Z,7.26
2018-11-14T16:40:53.839Z,7.34
2018-11-14T16:43:22.695Z,7.33
2018-11-14T16:45:51.366Z,7.17
2018-11-14T16:48:20.012Z,7.12
2018-11-14T16:50:48.702Z,7.03
2018-11-14T16:53:22.336Z,6.90
2018-11-14T16:55:51.321Z,6.89
2018-11-14T16:58:20.480Z,6.87
2018-11-14T17:00:50.465Z,6.80
2018-11-14T17:03:19.222Z,6.83
2018-11-14T17:05:48.026Z,6.80
2018-11-14T17:08:16.793Z,6.80
2018-11-14T17:10:45.478Z,6.77
2018-11-14T17:13:14.261Z,6.71
2018-11-14T17:15:42.988Z,6.69
2018-11-14T17:18:11.502Z,6.69
2018-11-14T17:20:40.270Z,6.61
2018-11-14T17:23:08.943Z,6.53
2018-11-14T17:25:37.639Z,6.49
2018-11-14T17:28:06.279Z,6.48
2018-11-14T17:30:34.861Z,6.45
2018-11-14T17:33:04.290Z,6.58
2018-11-14T17:35:32.643Z,6.67
2018-11-14T17:38:01.188Z,6.56
2018-11-14T17:40:29.876Z,6.50
2018-11-14T17:42:58.565Z,6.42
2018-11-14T17:45:29.237Z,6.43
2018-11-14T17:47:58.328Z,6.37
2018-11-14T17:50:29.526Z,6.34
2018-11-14T17:53:00.456Z,6.39
2018-11-14T17:55:29.359Z,6.36
2018-11-14T17:57:58.002Z,6.32
2018-11-14T18:00:27.677Z,6.28
2018-11-14T18:02:56.249Z,6.23
2018-11-14T18:05:25.702Z,6.15
2018-11-14T18:07:55.479Z,6.11
2018-11-14T18:10:25.070Z,6.02
2018-11-14T18:12:54.725Z,5.90
2018-11-14T18:15:23.387Z,5.67
2018-11-14T18:17:52.820Z,5.46
2018-11-14T18:20:22.615Z,5.23
2018-11-14T18:22:51.670Z,5.12
2018-11-14T18:25:20.395Z,5.00
2018-11-14T18:27:49.191Z,4.97
2018-11-14T18:30:20.247Z,4.90
2018-11-14T18:32:48.828Z,4.94
2018-11-14T18:35:18.541Z,4.85
2018-11-14T18:37:47.980Z,4.79
2018-11-14T18:40:19.466Z,4.74
2018-11-14T18:42:48.697Z,4.77
2018-11-14T18:45:25.052Z,4.82
2018-11-14T18:47:54.339Z,4.96
2018-11-14T18:50:23.582Z,4.88
2018-11-14T18:52:52.429Z,4.87
2018-11-14T18:55:22.582Z,4.92
2018-11-14T18:57:51.663Z,4.88
2018-11-14T19:00:22.969Z,4.93
2018-11-14T19:02:51.401Z,4.98
2018-11-14T19:05:20.732Z,5.00
2018-11-14T19:07:49.405Z,5.03
2018-11-14T19:10:19.620Z,5.05
2018-11-14T19:12:49.113Z,5.05
2018-11-14T19:15:20.853Z,4.95
2018-11-14T19:17:49.355Z,4.91
2018-11-14T19:20:20.503Z,4.93
2018-11-14T19:22:49.220Z,4.88
2018-11-14T19:25:21.083Z,4.84
2018-11-14T19:27:49.790Z,4.90
2018-11-14T19:30:22.592Z,4.92
2018-11-14T19:32:51.841Z,4.93
2018-11-14T19:35:20.341Z,4.90
2018-11-14T19:37:49.937Z,4.89
2018-11-14T19:40:24.119Z,4.94
2018-11-14T19:42:54.217Z,4.95
2018-11-14T19:45:24.111Z,4.95
2018-11-14T19:47:52.801Z,4.97
2018-11-14T19:50:22.081Z,4.96
2018-11-14T19:52:51.050Z,5.05
2018-11-14T19:55:21.350Z,5.05
2018-11-14T19:57:50.797Z,5.01
2018-11-14T20:00:22.667Z,4.94
2018-11-14T20:02:51.395Z,5.02
2018-11-14T20:05:20.920Z,5.06
2018-11-14T20:07:49.828Z,5.07
2018-11-14T20:10:20.566Z,5.11
2018-11-14T20:12:49.747Z,5.12
2018-11-14T20:15:19.718Z,5.18
2018-11-14T20:17:49.081Z,5.19
2018-11-14T20:20:20.350Z,5.18
2018-11-14T20:22:49.037Z,5.16
2018-11-14T20:25:17.675Z,5.13
2018-11-14T20:27:46.906Z,5.12
2018-11-14T20:30:18.250Z,5.11
2018-11-14T20:32:46.992Z,5.09
2018-11-14T20:35:16.730Z,5.03
2018-11-14T20:37:45.663Z,5.04
2018-11-14T20:40:16.214Z,5.09
2018-11-14T20:42:45.360Z,5.09
2018-11-14T20:45:18.448Z,5.05
2018-11-14T20:47:47.149Z,5.00
2018-11-14T20:50:17.348Z,5.02
2018-11-14T20:52:46.852Z,5.03
2018-11-14T20:55:15.571Z,5.10
2018-11-14T20:57:44.483Z,5.17
2018-11-14T21:00:24.716Z,5.13
2018-11-14T21:02:53.756Z,5.14
2018-11-14T21:05:22.696Z,5.13
2018-11-14T21:07:51.434Z,5.08
2018-11-14T21:10:21.251Z,5.09
2018-11-14T21:12:50.674Z,5.13
2018-11-14T21:15:22.364Z,5.12
2018-11-14T21:17:51.736Z,5.14
2018-11-14T21:20:20.366Z,5.12
2018-11-14T21:22:49.618Z,5.09
2018-11-14T21:25:19.505Z,5.11
2018-11-14T21:27:48.636Z,5.13
2018-11-14T21:30:18.557Z,5.12
2018-11-14T21:32:47.552Z,5.12
2018-11-14T21:35:19.007Z,5.07
2018-11-14T21:37:50.114Z,5.14
2018-11-14T21:40:18.830Z,5.15
2018-11-14T21:42:47.501Z,5.15
2018-11-14T21:45:18.308Z,5.17
2018-11-14T21:47:52.426Z,5.17
2018-11-14T21:50:21.936Z,5.21
2018-11-14T21:52:50.475Z,5.36
2018-11-14T21:55:19.028Z,5.32
2018-11-14T21:57:47.787Z,5.27
2018-11-14T22:00:20.074Z,5.31
2018-11-14T22:02:49.909Z,5.36
2018-11-14T22:05:18.826Z,5.39
2018-11-14T22:07:47.737Z,5.38
2018-11-14T22:10:17.970Z,5.39
2018-11-14T22:12:47.091Z,5.39
2018-11-14T22:15:16.796Z,5.40
2018-11-14T22:17:46.187Z,5.41
2018-11-14T22:20:16.020Z,5.47
2018-11-14T22:22:45.356Z,5.47
2018-11-14T22:25:15.083Z,5.47
2018-11-14T22:27:43.949Z,5.43
2018-11-14T22:30:17.672Z,5.40
2018-11-14T22:32:46.500Z,5.37
2018-11-14T22:35:16.737Z,5.38
2018-11-14T22:37:45.202Z,5.39
2018-11-14T22:40:20.783Z,5.41
2018-11-14T22:42:59.364Z,5.42
2018-11-14T22:48:23.406Z,5.51
2018-11-14T22:50:52.156Z,5.51
2018-11-14T22:53:20.713Z,5.54
2018-11-14T22:55:49.197Z,5.53
2018-11-14T22:58:17.778Z,5.52
2018-11-14T23:00:46.566Z,5.50
2018-11-14T23:03:14.899Z,5.52
2018-11-14T23:05:43.440Z,5.56
2018-11-14T23:08:11.867Z,5.58
2018-11-14T23:10:41.532Z,5.61
2018-11-14T23:13:09.948Z,5.61
2018-11-14T23:15:38.425Z,5.60
2018-11-14T23:18:06.953Z,5.60
2018-11-14T23:20:35.264Z,5.64
2018-11-14T23:23:03.969Z,5.62
2018-11-14T23:25:32.337Z,5.64
2018-11-14T23:28:00.849Z,5.66
2018-11-14T23:30:29.147Z,5.71
2018-11-14T23:32:57.755Z,5.73
2018-11-14T23:35:30.122Z,5.74
2018-11-14T23:37:59.602Z,5.78
2018-11-14T23:40:28.221Z,5.81
2018-11-14T23:42:56.827Z,5.86
2018-11-14T23:45:25.965Z,5.87
2018-11-14T23:47:54.143Z,5.92
2018-11-14T23:50:26.549Z,5.96
2018-11-14T23:52:55.882Z,5.94
2018-11-14T23:55:24.978Z,5.99
2018-11-14T23:57:53.681Z,5.95
